Time;durP1;ratioP1;P1;durP2;ratioP2;P2;SDS_P1;SDS_P2;PMS_P1;PMS_P2;Temp;Humidity;BMP_temperature;BMP_pressure;BME280_temperature;BME280_humidity;BME280_pressure;Samples;Min_cycle;Max_cycle;Signal;HPM_P1;HPM_P2
2023/01/07 00:01:22;;;;;;;2.30;1.50;;;7.90;99.90;;;;;;5011536;28;20063;-58
2023/01/07 00:03:48;;;;;;;2.47;1.80;;;7.90;99.90;;;;;;5018241;28;20655;-58
2023/01/07 00:06:16;;;;;;;3.47;2.30;;;7.80;99.90;;;;;;5021158;28;20038;-56
2023/01/07 00:08:44;;;;;;;2.08;1.85;;;7.80;99.90;;;;;;5016530;28;20042;-57
2023/01/07 00:11:16;;;;;;;4.10;2.05;;;7.80;99.90;;;;;;5012694;28;20060;-60
2023/01/07 00:13:43;;;;;;;2.90;1.60;;;7.90;99.90;;;;;;5016417;28;20026;-60
2023/01/07 00:16:12;;;;;;;2.67;1.60;;;7.90;99.90;;;;;;5011708;28;20026;-59
2023/01/07 00:18:38;;;;;;;2.10;1.60;;;8.00;99.90;;;;;;5010059;28;20061;-56
2023/01/07 00:21:07;;;;;;;2.35;1.40;;;8.00;99.90;;;;;;5003487;28;20045;-59
2023/01/07 00:23:34;;;;;;;1.67;1.42;;;8.00;99.90;;;;;;5001838;28;20402;-60
2023/01/07 00:26:19;;;;;;;1.80;1.50;;;8.00;99.90;;;;;;5013762;28;20524;-59
2023/01/07 00:28:49;;;;;;;5.50;1.50;;;8.00;99.90;;;;;;5008605;28;20030;-58
2023/01/07 00:31:17;;;;;;;1.95;1.40;;;8.00;99.90;;;;;;5008221;28;20096;-57
2023/01/07 00:34:29;;;;;;;1.58;1.33;;;8.00;99.90;;;;;;5006826;28;20704;-57
2023/01/07 00:36:33;;;;;;;3.40;1.40;;;8.00;99.90;;;;;;5008937;28;20029;-60
2023/01/07 00:39:04;;;;;;;2.78;2.28;;;8.00;99.90;;;;;;5014503;28;20053;-60
2023/01/07 00:41:29;;;;;;;;;;;7.90;99.90;;;;;;5012209;28;20029;-59
2023/01/07 00:43:56;;;;;;;1.50;1.30;;;7.90;99.90;;;;;;5009617;28;19920;-61
2023/01/07 00:46:22;;;;;;;2.08;1.20;;;7.90;99.90;;;;;;5010507;28;20041;-57
2023/01/07 00:48:47;;;;;;;1.42;1.30;;;7.90;99.90;;;;;;5014305;28;20042;-59
2023/01/07 00:51:14;;;;;;;2.05;1.58;;;8.00;99.90;;;;;;5012590;28;20033;-61
2023/01/07 00:53:41;;;;;;;3.78;1.30;;;8.00;99.90;;;;;;5012750;28;20037;-60
2023/01/07 00:56:08;;;;;;;2.50;1.50;;;7.90;99.90;;;;;;5015745;28;20481;-60
2023/01/07 00:58:33;;;;;;;1.55;1.45;;;7.90;99.90;;;;;;5013522;28;20038;-57
2023/01/07 01:01:00;;;;;;;3.40;1.17;;;7.90;99.90;;;;;;5006075;28;20018;-60
2023/01/07 01:03:27;;;;;;;1.60;1.50;;;7.90;99.90;;;;;;5004996;28;20038;-60
2023/01/07 01:05:53;;;;;;;1.73;1.50;;;7.80;99.90;;;;;;5009467;28;20042;-60
2023/01/07 01:08:20;;;;;;;1.77;1.42;;;7.80;99.90;;;;;;5008648;28;20129;-60
2023/01/07 01:10:46;;;;;;;1.92;1.45;;;7.80;99.90;;;;;;5010832;28;20037;-60
2023/01/07 01:13:17;;;;;;;2.15;1.50;;;7.80;99.90;;;;;;5015067;28;20018;-60
2023/01/07 01:15:43;;;;;;;2.38;1.40;;;7.80;99.90;;;;;;5008662;28;20544;-60
2023/01/07 01:18:10;;;;;;;1.70;1.50;;;7.80;99.90;;;;;;5007026;28;20022;-61
2023/01/07 01:20:35;;;;;;;2.05;1.30;;;7.80;99.90;;;;;;5009520;28;20145;-60
2023/01/07 01:23:01;;;;;;;1.80;1.20;;;7.80;99.90;;;;;;5006947;28;20036;-60
2023/01/07 01:25:27;;;;;;;3.15;1.20;;;7.80;99.90;;;;;;5008034;28;20022;-60
2023/01/07 01:27:52;;;;;;;1.42;1.10;;;7.80;99.90;;;;;;5009173;28;20397;-60
2023/01/07 01:30:18;;;;;;;1.45;1.17;;;7.80;99.90;;;;;;5010147;28;20030;-58
2023/01/07 01:32:43;;;;;;;1.20;1.00;;;7.80;99.90;;;;;;5011365;28;20613;-57
2023/01/07 01:35:09;;;;;;;1.35;1.23;;;7.80;99.90;;;;;;5006991;28;20030;-57
2023/01/07 01:37:35;;;;;;;3.35;1.08;;;7.80;99.90;;;;;;5001702;28;20034;-58
2023/01/07 01:40:04;;;;;;;1.00;0.90;;;7.80;99.90;;;;;;5009607;28;20069;-57
2023/01/07 01:42:30;;;;;;;3.13;1.00;;;7.90;99.90;;;;;;5010482;28;20533;-60
2023/01/07 01:45:00;;;;;;;1.23;1.10;;;8.00;99.90;;;;;;5011107;28;20030;-59
2023/01/07 01:47:35;;;;;;;1.00;0.90;;;8.00;99.90;;;;;;5010652;28;20090;-61
2023/01/07 01:50:10;;;;;;;1.77;1.17;;;8.00;99.90;;;;;;5011874;28;20027;-58
2023/01/07 01:52:46;;;;;;;2.03;1.00;;;8.00;99.90;;;;;;5012414;28;20406;-61
2023/01/07 01:55:16;;;;;;;1.20;1.10;;;8.00;99.90;;;;;;5012538;28;20034;-60
2023/01/07 01:57:42;;;;;;;1.20;1.10;;;8.00;99.90;;;;;;5009675;28;20034;-60
2023/01/07 02:00:09;;;;;;;1.42;1.20;;;8.00;99.90;;;;;;5003933;28;20449;-59
2023/01/07 02:02:47;;;;;;;1.17;1.08;;;7.90;99.90;;;;;;5010341;28;20065;-60
2023/01/07 02:05:14;;;;;;;1.55;1.23;;;8.00;99.90;;;;;;5010376;28;20042;-60
2023/01/07 02:07:40;;;;;;;1.10;0.98;;;8.00;99.90;;;;;;5014777;28;20147;-59
2023/01/07 02:10:16;;;;;;;1.20;1.10;;;8.00;99.90;;;;;;5006573;28;20117;-57
2023/01/07 02:12:54;;;;;;;1.00;0.93;;;8.00;99.90;;;;;;5005849;28;20084;-59
2023/01/07 02:15:25;;;;;;;1.58;1.20;;;8.00;99.90;;;;;;5010876;28;20439;-61
2023/01/07 02:18:02;;;;;;;2.05;1.10;;;8.10;99.90;;;;;;5009438;28;20581;-59
2023/01/07 02:21:07;;;;;;;1.20;1.10;;;8.00;99.90;;;;;;5005699;28;20075;-60
2023/01/07 02:24:10;;;;;;;2.05;1.20;;;8.00;99.90;;;;;;4986571;28;20437;-58
2023/01/07 02:26:54;;;;;;;0.90;0.90;;;8.10;99.90;;;;;;5010452;28;20069;-59
2023/01/07 02:29:25;;;;;;;1.25;1.00;;;8.10;99.90;;;;;;5010281;28;20038;-59
2023/01/07 02:32:06;;;;;;;1.15;1.00;;;8.10;99.90;;;;;;5009200;28;20080;-60
2023/01/07 02:34:50;;;;;;;1.10;1.00;;;8.10;99.90;;;;;;5006857;28;20040;-57
2023/01/07 02:37:19;;;;;;;2.75;1.00;;;8.00;99.90;;;;;;5011596;28;20299;-61
2023/01/07 02:40:37;;;;;;;1.23;0.90;;;8.00;99.90;;;;;;5011248;28;20029;-61
2023/01/07 02:43:15;;;;;;;1.38;1.00;;;8.00;99.90;;;;;;4973315;28;20042;-58
2023/01/07 02:45:49;;;;;;;0.60;0.60;;;8.00;99.90;;;;;;4975501;28;20034;-58
2023/01/07 02:48:18;;;;;;;0.55;0.55;;;8.10;99.90;;;;;;4988262;28;20033;-57
2023/01/07 02:50:44;;;;;;;1.10;0.60;;;8.20;99.90;;;;;;5005235;28;20034;-60
2023/01/07 02:53:14;;;;;;;0.60;0.60;;;8.30;99.90;;;;;;4995850;28;20032;-60
2023/01/07 02:55:55;;;;;;;0.80;0.80;;;8.30;99.90;;;;;;5008022;28;20391;-60
2023/01/07 02:58:21;;;;;;;0.70;0.70;;;8.20;99.90;;;;;;4998320;28;20031;-62
2023/01/07 03:01:11;;;;;;;1.45;0.70;;;8.20;99.90;;;;;;5007068;28;20077;-61
2023/01/07 03:03:59;;;;;;;1.95;0.90;;;8.10;99.90;;;;;;5012532;28;20079;-60
2023/01/07 03:06:43;;;;;;;1.02;0.70;;;8.10;99.90;;;;;;5013226;28;20733;-61
2023/01/07 03:09:26;;;;;;;0.68;0.68;;;8.10;99.90;;;;;;5011797;28;20031;-61
2023/01/07 03:12:26;;;;;;;0.75;0.75;;;8.00;99.90;;;;;;5014186;28;20541;-62
2023/01/07 03:15:43;;;;;;;0.88;0.80;;;7.90;99.90;;;;;;5004565;28;20048;-60
2023/01/07 03:18:26;;;;;;;0.60;0.60;;;7.90;99.90;;;;;;4989618;28;20023;-60
2023/01/07 03:20:57;;;;;;;1.75;0.60;;;8.00;99.90;;;;;;5012141;28;20021;-61
2023/01/07 03:23:28;;;;;;;0.77;0.77;;;8.10;99.90;;;;;;5009787;28;20517;-58
2023/01/07 03:25:56;;;;;;;0.82;0.80;;;8.10;99.90;;;;;;5005324;28;20034;-59
2023/01/07 03:28:28;;;;;;;1.60;0.70;;;8.10;99.90;;;;;;5008226;28;20054;-57
2023/01/07 03:30:57;;;;;;;0.85;0.70;;;8.00;99.90;;;;;;5012733;28;20030;-58
2023/01/07 03:33:33;;;;;;;0.70;0.70;;;8.00;99.90;;;;;;5005782;28;20385;-58
2023/01/07 03:36:00;;;;;;;1.20;0.73;;;8.00;99.90;;;;;;5002531;28;20157;-57
2023/01/07 03:38:27;;;;;;;0.70;0.70;;;8.00;99.90;;;;;;4996004;28;20038;-57
2023/01/07 03:40:52;;;;;;;1.38;0.77;;;8.00;99.90;;;;;;5004311;28;20103;-58
2023/01/07 03:43:20;;;;;;;0.98;0.88;;;8.00;99.90;;;;;;5013459;28;20053;-57
2023/01/07 03:45:47;;;;;;;0.80;0.80;;;7.90;99.90;;;;;;5015730;28;20389;-58
2023/01/07 03:48:13;;;;;;;1.00;0.90;;;7.90;99.90;;;;;;5009140;28;20044;-58
2023/01/07 03:50:38;;;;;;;0.80;0.80;;;7.90;99.90;;;;;;5011492;28;20060;-57
2023/01/07 03:53:04;;;;;;;1.00;0.95;;;7.80;99.90;;;;;;5003926;28;20080;-59
2023/01/07 03:55:30;;;;;;;1.25;0.70;;;7.70;99.90;;;;;;5005664;28;20697;-58
2023/01/07 03:57:56;;;;;;;1.13;0.73;;;7.70;99.90;;;;;;5013786;28;20058;-57
2023/01/07 04:00:22;;;;;;;0.80;0.80;;;7.80;99.90;;;;;;5007700;28;20042;-58
2023/01/07 04:02:47;;;;;;;0.80;0.80;;;7.80;99.90;;;;;;5006851;28;20034;-58
2023/01/07 04:05:13;;;;;;;0.80;0.80;;;7.80;99.90;;;;;;5011375;28;20044;-57
2023/01/07 04:07:39;;;;;;;1.48;1.13;;;7.80;99.90;;;;;;5013189;28;20853;-58
2023/01/07 04:10:06;;;;;;;0.63;0.63;;;7.80;99.90;;;;;;5009330;28;20498;-57
2023/01/07 04:12:32;;;;;;;0.60;0.60;;;7.80;99.90;;;;;;5007632;28;20026;-57
2023/01/07 04:14:57;;;;;;;0.57;0.52;;;7.90;99.90;;;;;;5007685;28;20038;-57
2023/01/07 04:17:23;;;;;;;0.47;0.47;;;7.90;99.90;;;;;;5003567;28;20085;-59
2023/01/07 04:19:49;;;;;;;0.50;0.50;;;8.00;99.90;;;;;;5010414;28;20402;-58
2023/01/07 04:22:15;;;;;;;1.30;0.60;;;8.00;99.90;;;;;;5013257;28;20041;-57
2023/01/07 04:24:40;;;;;;;2.15;0.60;;;8.10;99.90;;;;;;5012030;28;20036;-58
2023/01/07 04:27:06;;;;;;;0.63;0.60;;;8.10;99.90;;;;;;5007488;28;20030;-57
2023/01/07 04:29:32;;;;;;;1.67;0.65;;;8.10;99.90;;;;;;5006484;28;20034;-58
2023/01/07 04:31:57;;;;;;;1.95;0.60;;;8.00;99.90;;;;;;5007196;28;20029;-59
2023/01/07 04:34:23;;;;;;;1.83;0.70;;;7.90;99.90;;;;;;5012558;28;20041;-58
2023/01/07 04:36:49;;;;;;;0.60;0.60;;;7.90;99.90;;;;;;5013856;28;20032;-57
2023/01/07 04:39:15;;;;;;;1.02;0.63;;;7.80;99.90;;;;;;4993361;28;20038;-61
2023/01/07 04:41:41;;;;;;;0.70;0.70;;;7.70;99.90;;;;;;5013987;28;20026;-60
2023/01/07 04:44:06;;;;;;;0.88;0.70;;;7.70;99.90;;;;;;5013105;28;20024;-59
2023/01/07 04:46:32;;;;;;;2.15;0.77;;;7.70;99.90;;;;;;5007793;28;20418;-61
2023/01/07 04:48:58;;;;;;;0.80;0.80;;;7.70;99.90;;;;;;5007308;28;20025;-60
2023/01/07 04:51:23;;;;;;;0.70;0.70;;;7.60;99.90;;;;;;5006750;28;20041;-59
2023/01/07 04:53:49;;;;;;;0.98;0.90;;;7.60;99.90;;;;;;5007013;28;20045;-60
2023/01/07 04:56:14;;;;;;;0.80;0.80;;;7.50;99.90;;;;;;5013955;28;20044;-62
2023/01/07 04:58:40;;;;;;;1.33;1.00;;;7.50;99.90;;;;;;5011158;28;20034;-60
2023/01/07 05:01:06;;;;;;;1.35;1.00;;;7.50;99.90;;;;;;5010880;28;20022;-61
2023/01/07 05:03:35;;;;;;;1.20;1.08;;;7.50;99.90;;;;;;5007688;28;20108;-61
2023/01/07 05:06:01;;;;;;;1.20;1.10;;;7.50;99.90;;;;;;5008670;28;20554;-60
2023/01/07 05:08:27;;;;;;;2.13;1.20;;;7.50;99.90;;;;;;5011838;28;20029;-61
2023/01/07 05:10:53;;;;;;;3.03;1.23;;;7.50;99.90;;;;;;5007164;28;20184;-62
2023/01/07 05:13:22;;;;;;;1.38;1.25;;;7.50;99.90;;;;;;5006955;28;20526;-61
2023/01/07 05:15:47;;;;;;;2.03;1.25;;;7.50;99.90;;;;;;5004398;28;20025;-60
2023/01/07 05:18:14;;;;;;;1.67;1.58;;;7.50;99.90;;;;;;5004139;28;20033;-61
2023/01/07 05:20:40;;;;;;;1.40;1.30;;;7.50;99.90;;;;;;5013760;28;20144;-60
2023/01/07 05:23:06;;;;;;;1.30;1.20;;;7.50;99.90;;;;;;5015728;28;20156;-60
2023/01/07 05:25:33;;;;;;;3.05;1.20;;;7.50;99.90;;;;;;5011587;28;20038;-60
2023/01/07 05:27:59;;;;;;;1.55;1.23;;;7.50;99.90;;;;;;5012956;28;20029;-57
2023/01/07 05:30:24;;;;;;;1.67;1.35;;;7.50;99.90;;;;;;5012072;28;20386;-58
2023/01/07 05:32:50;;;;;;;1.33;1.23;;;7.50;99.90;;;;;;5015325;28;20082;-59
2023/01/07 05:35:16;;;;;;;1.50;1.40;;;7.50;99.90;;;;;;5014009;28;20125;-58
2023/01/07 05:37:41;;;;;;;1.60;1.30;;;7.50;99.90;;;;;;4997121;28;20033;-59
2023/01/07 05:40:08;;;;;;;1.83;1.35;;;7.40;99.90;;;;;;5013193;28;20080;-58
2023/01/07 05:42:33;;;;;;;1.88;1.00;;;7.50;99.90;;;;;;5014767;28;20041;-58
2023/01/07 05:44:59;;;;;;;1.27;1.17;;;7.40;99.90;;;;;;5004220;28;20793;-58
2023/01/07 05:47:25;;;;;;;1.40;1.02;;;7.50;99.90;;;;;;5012703;28;20373;-58
2023/01/07 05:49:50;;;;;;;1.13;1.02;;;7.50;99.90;;;;;;5012987;28;20676;-58
2023/01/07 05:52:16;;;;;;;1.17;1.08;;;7.50;99.90;;;;;;5011925;28;20049;-58
2023/01/07 05:54:42;;;;;;;1.63;1.52;;;7.40;99.90;;;;;;5011809;28;20026;-58
2023/01/07 05:57:07;;;;;;;1.33;1.00;;;7.40;99.90;;;;;;5007802;28;20053;-57
2023/01/07 05:59:34;;;;;;;1.42;1.33;;;7.40;99.90;;;;;;5011165;28;20390;-58
2023/01/07 06:02:03;;;;;;;1.83;1.10;;;7.40;99.90;;;;;;5015463;28;20069;-59
2023/01/07 06:04:29;;;;;;;2.22;1.23;;;7.50;99.90;;;;;;5017462;28;20030;-60
2023/01/07 06:06:54;;;;;;;1.40;1.30;;;7.50;99.90;;;;;;5008114;28;20021;-60
2023/01/07 06:09:21;;;;;;;1.27;1.17;;;7.50;99.90;;;;;;4999255;28;20027;-60
2023/01/07 06:11:46;;;;;;;1.73;1.10;;;7.50;99.90;;;;;;5016396;28;20108;-60
2023/01/07 06:14:12;;;;;;;2.30;1.35;;;7.50;99.90;;;;;;5010190;28;20085;-57
2023/01/07 06:16:38;;;;;;;1.40;1.30;;;7.60;99.90;;;;;;5008138;28;20095;-58
2023/01/07 06:19:03;;;;;;;1.50;1.40;;;7.60;99.90;;;;;;5008143;28;20162;-57
2023/01/07 06:21:29;;;;;;;3.63;1.30;;;7.60;99.90;;;;;;5009000;28;20034;-57
2023/01/07 06:23:55;;;;;;;1.45;1.30;;;7.60;99.90;;;;;;5008660;28;20091;-58
2023/01/07 06:26:21;;;;;;;3.00;1.25;;;7.60;99.90;;;;;;5005917;28;20038;-58
2023/01/07 06:28:47;;;;;;;2.85;1.30;;;7.60;99.90;;;;;;5006680;28;20169;-60
2023/01/07 06:31:12;;;;;;;1.75;1.38;;;7.60;99.90;;;;;;5006941;28;20124;-58
2023/01/07 06:33:39;;;;;;;1.33;1.23;;;7.60;99.90;;;;;;5010788;28;20186;-57
2023/01/07 06:36:05;;;;;;;1.33;1.23;;;7.60;99.90;;;;;;5004715;28;20160;-58
2023/01/07 06:38:31;;;;;;;2.03;1.60;;;7.60;99.90;;;;;;5011649;28;20083;-58
2023/01/07 06:41:01;;;;;;;2.33;1.67;;;7.60;99.90;;;;;;5013828;28;20042;-59
2023/01/07 06:43:26;;;;;;;1.75;1.30;;;7.60;99.90;;;;;;5001596;28;20027;-60
2023/01/07 06:45:52;;;;;;;2.78;1.40;;;7.50;99.90;;;;;;5008352;28;20072;-60
2023/01/07 06:48:18;;;;;;;1.73;1.40;;;7.50;99.90;;;;;;5008687;28;20075;-58
2023/01/07 06:50:45;;;;;;;1.58;1.48;;;7.50;99.90;;;;;;5007480;28;20101;-58
2023/01/07 06:53:10;;;;;;;1.90;1.70;;;7.40;99.90;;;;;;5006434;28;20113;-59
2023/01/07 06:55:36;;;;;;;2.88;1.70;;;7.40;99.90;;;;;;5005185;28;20495;-58
2023/01/07 06:58:02;;;;;;;1.58;1.48;;;7.40;99.90;;;;;;5008938;28;20029;-58
2023/01/07 07:00:27;;;;;;;4.25;1.50;;;7.40;99.90;;;;;;5008013;28;20030;-57
2023/01/07 07:02:53;;;;;;;1.88;1.60;;;7.40;99.90;;;;;;5005026;28;20034;-58
2023/01/07 07:05:19;;;;;;;4.40;2.40;;;7.40;99.90;;;;;;5004598;28;20180;-59
2023/01/07 07:07:45;;;;;;;1.50;1.40;;;7.40;99.90;;;;;;5004318;28;20022;-57
2023/01/07 07:10:10;;;;;;;3.63;1.27;;;7.40;99.90;;;;;;5012099;28;20029;-58
2023/01/07 07:12:37;;;;;;;1.40;1.30;;;7.40;99.90;;;;;;5006857;28;20030;-58
2023/01/07 07:15:05;;;;;;;1.75;1.58;;;7.40;99.90;;;;;;5013019;28;20014;-59
2023/01/07 07:17:31;;;;;;;1.95;1.75;;;7.40;99.90;;;;;;5009418;28;20034;-58
2023/01/07 07:19:57;;;;;;;2.63;1.50;;;7.50;99.90;;;;;;5006051;28;20033;-58
2023/01/07 07:22:22;;;;;;;1.80;1.70;;;7.40;99.90;;;;;;5007256;28;20190;-60
2023/01/07 07:24:48;;;;;;;3.00;1.80;;;7.50;99.90;;;;;;5008910;28;20136;-61
2023/01/07 07:27:13;;;;;;;1.80;1.70;;;7.50;99.90;;;;;;5012654;28;20113;-61
2023/01/07 07:29:39;;;;;;;2.47;1.40;;;7.50;99.90;;;;;;5015835;28;20029;-62
2023/01/07 07:32:05;;;;;;;2.13;1.70;;;7.50;99.90;;;;;;5016123;28;20032;-61
2023/01/07 07:34:30;;;;;;;1.70;1.60;;;7.50;99.90;;;;;;5007122;28;20025;-59
2023/01/07 07:36:56;;;;;;;2.58;1.33;;;7.50;99.90;;;;;;5007927;28;20076;-60
2023/01/07 07:39:22;;;;;;;2.00;1.40;;;7.50;99.90;;;;;;5010046;28;20025;-60
2023/01/07 07:41:47;;;;;;;1.30;1.20;;;7.60;99.90;;;;;;5009772;28;20085;-60
2023/01/07 07:44:13;;;;;;;1.52;1.30;;;7.60;99.90;;;;;;5011519;28;20076;-61
2023/01/07 07:46:39;;;;;;;1.65;1.50;;;7.60;99.90;;;;;;5011564;28;20059;-60
2023/01/07 07:49:04;;;;;;;2.10;1.35;;;7.60;99.90;;;;;;5015074;28;20040;-59
2023/01/07 07:51:30;;;;;;;3.33;1.83;;;7.60;99.90;;;;;;5015145;28;20082;-60
2023/01/07 07:53:56;;;;;;;2.00;1.80;;;7.60;99.90;;;;;;5012286;28;20381;-57
2023/01/07 07:56:22;;;;;;;2.00;1.80;;;7.70;99.90;;;;;;5005281;28;20030;-57
2023/01/07 07:58:48;;;;;;;6.20;2.08;;;7.70;99.90;;;;;;5008725;28;20025;-57
2023/01/07 08:01:13;;;;;;;2.70;2.28;;;7.70;99.90;;;;;;5011736;28;20040;-57
2023/01/07 08:03:39;;;;;;;3.33;2.47;;;7.70;99.90;;;;;;5008484;28;20336;-59
2023/01/07 08:06:05;;;;;;;3.53;2.50;;;7.80;99.90;;;;;;5009964;28;20049;-58
2023/01/07 08:08:31;;;;;;;2.50;2.25;;;7.80;99.90;;;;;;5003253;28;20026;-58
2023/01/07 08:10:57;;;;;;;3.78;2.55;;;7.80;99.90;;;;;;5006357;28;20033;-58
2023/01/07 08:13:23;;;;;;;3.65;3.00;;;7.80;99.90;;;;;;5013647;28;20623;-58
2023/01/07 08:15:48;;;;;;;2.92;2.47;;;7.90;99.90;;;;;;5013527;28;20048;-57
2023/01/07 08:18:14;;;;;;;3.28;2.78;;;7.90;99.90;;;;;;5014377;28;20668;-58
2023/01/07 08:20:40;;;;;;;5.18;3.25;;;7.90;99.90;;;;;;5015190;28;20069;-57
2023/01/07 08:23:06;;;;;;;4.57;4.18;;;7.90;99.90;;;;;;5014161;28;20037;-58
2023/01/07 08:25:33;;;;;;;7.05;3.08;;;7.90;99.90;;;;;;4998350;28;20034;-58
2023/01/07 08:28:00;;;;;;;5.97;3.42;;;8.00;99.90;;;;;;5011464;28;20045;-59
2023/01/07 08:30:26;;;;;;;5.20;3.70;;;8.00;99.90;;;;;;5010958;28;20045;-57
2023/01/07 08:32:52;;;;;;;5.65;4.53;;;8.00;99.90;;;;;;5017961;28;20038;-58
2023/01/07 08:35:18;;;;;;;6.47;5.45;;;8.00;99.90;;;;;;5015454;28;20030;-57
2023/01/07 08:37:44;;;;;;;6.95;5.75;;;8.10;99.90;;;;;;5016099;28;20037;-57
2023/01/07 08:40:11;;;;;;;5.90;5.28;;;8.00;99.90;;;;;;5011790;28;20477;-58
2023/01/07 08:42:37;;;;;;;8.18;5.45;;;8.00;99.90;;;;;;5016228;28;20053;-57
2023/01/07 08:45:07;;;;;;;8.90;7.25;;;8.00;99.90;;;;;;5014660;28;20544;-57
2023/01/07 08:47:33;;;;;;;10.48;7.53;;;8.00;99.90;;;;;;5014678;28;20046;-57
2023/01/07 08:49:59;;;;;;;7.60;6.80;;;8.00;99.90;;;;;;5013920;28;20022;-57
2023/01/07 08:52:25;;;;;;;3.67;3.38;;;8.10;99.90;;;;;;5013350;28;20036;-57
2023/01/07 08:54:51;;;;;;;4.10;3.70;;;8.10;99.90;;;;;;5016552;28;20060;-57
2023/01/07 08:57:17;;;;;;;3.25;2.95;;;8.10;99.90;;;;;;5018151;28;20036;-57
2023/01/07 08:59:43;;;;;;;3.10;2.80;;;8.10;99.90;;;;;;5003309;28;20031;-57
2023/01/07 09:02:14;;;;;;;2.55;2.35;;;8.10;99.90;;;;;;5001677;28;20038;-58
2023/01/07 09:04:40;;;;;;;4.43;2.80;;;8.10;99.90;;;;;;5009004;28;20125;-57
2023/01/07 09:07:05;;;;;;;6.10;3.05;;;8.10;99.90;;;;;;5009691;28;20167;-57
2023/01/07 09:09:31;;;;;;;3.92;3.20;;;8.10;99.90;;;;;;5006128;28;20030;-58
2023/01/07 09:11:57;;;;;;;3.88;3.58;;;8.10;99.90;;;;;;5006620;28;20116;-57
2023/01/07 09:14:22;;;;;;;3.40;3.10;;;8.20;99.90;;;;;;5004613;28;20447;-58
2023/01/07 09:16:48;;;;;;;3.92;3.53;;;8.20;99.90;;;;;;5009771;28;20018;-58
2023/01/07 09:19:13;;;;;;;3.30;2.88;;;8.20;99.90;;;;;;5009558;28;20155;-58
2023/01/07 09:21:39;;;;;;;3.53;2.88;;;8.20;99.90;;;;;;5009567;28;20025;-58
2023/01/07 09:24:05;;;;;;;3.35;2.88;;;8.30;99.90;;;;;;5011721;28;20042;-58
2023/01/07 09:26:31;;;;;;;2.97;2.53;;;8.30;99.90;;;;;;5012774;28;20022;-58
2023/01/07 09:28:56;;;;;;;3.80;3.05;;;8.30;99.90;;;;;;5007550;28;20037;-58
2023/01/07 09:31:22;;;;;;;3.45;2.95;;;8.30;99.90;;;;;;5006464;28;20506;-58
2023/01/07 09:33:48;;;;;;;3.25;2.92;;;8.30;99.90;;;;;;5008447;28;20013;-57
2023/01/07 09:36:13;;;;;;;4.43;2.75;;;8.30;99.90;;;;;;5004362;28;20390;-58
2023/01/07 09:38:39;;;;;;;3.30;3.00;;;8.30;99.90;;;;;;5000214;28;20334;-57
2023/01/07 09:41:18;;;;;;;3.53;2.95;;;8.30;99.90;;;;;;5012854;28;20088;-60
2023/01/07 09:43:51;;;;;;;3.88;3.47;;;8.20;99.90;;;;;;5006735;28;20667;-58
2023/01/07 09:46:17;;;;;;;6.18;3.03;;;8.20;99.90;;;;;;5003168;28;20050;-58
2023/01/07 09:48:52;;;;;;;4.47;3.08;;;8.20;99.90;;;;;;5004559;28;20080;-58
2023/01/07 09:51:29;;;;;;;3.53;3.22;;;8.20;99.90;;;;;;5005086;28;20073;-57
2023/01/07 09:54:00;;;;;;;4.68;4.28;;;8.20;99.90;;;;;;5006201;28;20030;-58
2023/01/07 09:56:34;;;;;;;6.55;5.47;;;8.20;99.90;;;;;;5010259;28;20368;-58
2023/01/07 09:59:02;;;;;;;6.47;4.32;;;8.20;99.90;;;;;;5016721;28;20052;-58
2023/01/07 10:01:33;;;;;;;4.95;4.45;;;8.20;99.90;;;;;;5016048;28;20045;-57
2023/01/07 10:04:20;;;;;;;4.43;4.03;;;8.20;99.90;;;;;;5011526;28;20100;-57
2023/01/07 10:06:55;;;;;;;6.38;3.70;;;8.30;99.90;;;;;;5010886;28;20039;-59
2023/01/07 10:10:04;;;;;;;5.90;3.80;;;8.30;99.90;;;;;;5003854;28;20026;-58
2023/01/07 10:12:35;;;;;;;4.55;3.78;;;8.30;99.90;;;;;;5009237;28;20184;-58
2023/01/07 10:15:27;;;;;;;;;;;8.40;99.90;;;;;;5009691;28;20041;-57
2023/01/07 10:18:22;;;;;;;4.30;3.92;;;8.40;99.90;;;;;;4986990;28;20653;-57
2023/01/07 10:20:58;;;;;;;4.32;3.92;;;8.50;99.90;;;;;;5015416;28;20109;-58
2023/01/07 10:23:37;;;;;;;4.15;3.83;;;8.50;99.90;;;;;;5015350;28;20034;-58
2023/01/07 10:26:05;;;;;;;4.25;3.85;;;8.50;99.90;;;;;;5010962;28;20033;-58
2023/01/07 10:28:42;;;;;;;3.63;3.33;;;8.50;99.90;;;;;;5001493;28;20030;-58
2023/01/07 10:31:16;;;;;;;7.32;4.00;;;8.50;99.90;;;;;;5008837;28;21197;-58
2023/01/07 10:33:44;;;;;;;6.50;4.07;;;8.60;99.90;;;;;;5012877;28;20046;-57
2023/01/07 10:36:19;;;;;;;3.83;3.53;;;8.60;99.90;;;;;;5011595;28;20036;-58
2023/01/07 10:38:54;;;;;;;4.15;3.78;;;8.60;99.90;;;;;;5016437;28;20589;-58
2023/01/07 10:41:35;;;;;;;4.40;3.90;;;8.60;99.90;;;;;;5015402;28;20493;-57
2023/01/07 10:44:27;;;;;;;4.05;3.75;;;8.60;99.90;;;;;;4995855;28;20029;-58
2023/01/07 10:47:07;;;;;;;4.22;3.92;;;8.50;99.90;;;;;;4992886;28;20486;-57
2023/01/07 10:49:53;;;;;;;4.32;3.92;;;8.50;99.90;;;;;;5000464;28;20045;-58
2023/01/07 10:52:25;;;;;;;5.05;4.20;;;8.50;99.90;;;;;;5005737;28;20506;-58
2023/01/07 10:55:25;;;;;;;4.22;3.83;;;8.50;99.90;;;;;;5009467;28;20093;-58
2023/01/07 10:57:50;;;;;;;4.50;3.95;;;8.50;99.90;;;;;;5012970;28;20060;-58
2023/01/07 11:00:17;;;;;;;5.45;3.97;;;8.40;99.90;;;;;;5005374;28;20190;-59
2023/01/07 11:02:52;;;;;;;4.97;4.32;;;8.40;99.90;;;;;;5004601;28;20037;-58
2023/01/07 11:05:20;;;;;;;5.25;3.88;;;8.40;99.90;;;;;;5003455;28;20033;-57
2023/01/07 11:08:00;;;;;;;4.32;4.00;;;8.40;99.90;;;;;;5015215;28;20042;-61
2023/01/07 11:10:33;;;;;;;4.87;4.37;;;8.50;99.90;;;;;;5014093;28;20079;-60
2023/01/07 11:13:15;;;;;;;5.45;4.95;;;8.40;99.90;;;;;;5016593;28;20033;-60
2023/01/07 11:16:12;;;;;;;5.15;4.40;;;8.50;99.90;;;;;;5015193;28;20029;-59
2023/01/07 11:18:58;;;;;;;4.95;4.45;;;8.50;99.90;;;;;;5012784;28;20045;-59
2023/01/07 11:21:45;;;;;;;4.63;4.22;;;8.60;99.90;;;;;;5015685;28;20036;-57
2023/01/07 11:24:31;;;;;;;4.93;4.50;;;8.60;99.90;;;;;;5015517;28;20033;-58
2023/01/07 11:27:14;;;;;;;5.18;4.68;;;8.60;99.90;;;;;;5015124;28;20111;-59
2023/01/07 11:30:00;;;;;;;5.38;4.88;;;8.60;99.90;;;;;;5010170;28;20053;-57
2023/01/07 11:32:29;;;;;;;5.13;4.60;;;8.60;99.90;;;;;;5010409;28;20046;-58
2023/01/07 11:35:01;;;;;;;5.47;4.88;;;8.60;99.90;;;;;;5011103;28;20563;-57
2023/01/07 11:37:47;;;;;;;5.47;4.97;;;8.60;99.90;;;;;;5018044;28;20038;-58
2023/01/07 11:40:12;;;;;;;6.22;4.80;;;8.60;99.90;;;;;;5016503;28;20024;-58
2023/01/07 11:42:54;;;;;;;6.85;5.18;;;8.60;99.90;;;;;;5014069;28;20021;-57
2023/01/07 11:45:29;;;;;;;4.82;4.43;;;8.60;99.90;;;;;;5009453;28;20033;-58
2023/01/07 11:48:08;;;;;;;4.85;4.45;;;8.60;99.90;;;;;;5011961;28;20046;-58
2023/01/07 11:50:39;;;;;;;4.75;4.35;;;8.60;99.90;;;;;;5012165;28;20132;-57
2023/01/07 11:53:14;;;;;;;4.30;3.90;;;8.60;99.90;;;;;;5014003;28;20034;-58
2023/01/07 11:56:05;;;;;;;5.47;4.00;;;8.70;99.90;;;;;;5006171;28;20033;-58
2023/01/07 11:58:36;;;;;;;4.68;4.25;;;8.70;99.90;;;;;;5012575;28;20010;-58
2023/01/07 12:01:07;;;;;;;5.65;4.63;;;8.70;99.90;;;;;;5011219;28;20021;-58
2023/01/07 12:03:43;;;;;;;4.50;4.10;;;8.70;99.90;;;;;;5004087;28;20031;-58
2023/01/07 12:06:31;;;;;;;5.00;4.50;;;8.70;99.90;;;;;;5005066;28;20342;-57
2023/01/07 12:09:02;;;;;;;5.63;5.13;;;8.70;99.90;;;;;;5004435;28;20501;-57
2023/01/07 12:11:35;;;;;;;5.45;4.95;;;8.70;99.90;;;;;;5012592;28;20035;-57
2023/01/07 12:14:08;;;;;;;5.18;4.68;;;8.70;99.90;;;;;;4996063;28;20026;-58
2023/01/07 12:16:35;;;;;;;5.32;4.88;;;8.70;99.90;;;;;;5015883;28;20692;-58
2023/01/07 12:19:30;;;;;;;5.53;5.03;;;8.80;99.90;;;;;;5016040;28;20109;-57
2023/01/07 12:22:10;;;;;;;5.97;5.38;;;8.80;99.90;;;;;;4998013;28;20080;-59
2023/01/07 12:24:48;;;;;;;6.37;5.73;;;8.80;99.90;;;;;;5012830;28;20050;-57
2023/01/07 12:27:29;;;;;;;6.55;5.80;;;8.90;99.90;;;;;;5004789;28;20033;-58
2023/01/07 12:30:01;;;;;;;;;;;8.90;99.90;;;;;;5006882;28;20029;-57
2023/01/07 12:32:48;;;;;;;7.10;6.03;;;8.80;99.90;;;;;;5005075;28;19921;-58
2023/01/07 12:35:23;;;;;;;6.10;5.60;;;8.80;99.90;;;;;;5011113;28;20038;-60
2023/01/07 12:37:57;;;;;;;6.80;5.78;;;8.80;99.90;;;;;;5010252;28;20026;-58
2023/01/07 12:40:52;;;;;;;6.65;6.05;;;8.90;99.90;;;;;;5018846;28;20045;-58
2023/01/07 12:43:32;;;;;;;6.78;6.18;;;8.90;99.90;;;;;;5014525;28;20079;-58
2023/01/07 12:46:09;;;;;;;7.40;6.63;;;8.90;99.90;;;;;;5028660;28;20053;-58
2023/01/07 12:48:38;;;;;;;6.80;6.20;;;8.90;99.90;;;;;;5008048;28;20034;-58
2023/01/07 12:51:13;;;;;;;7.50;6.80;;;8.90;99.90;;;;;;5011238;28;20022;-58
2023/01/07 12:54:17;;;;;;;7.53;6.93;;;8.80;99.90;;;;;;5017825;28;20025;-57
2023/01/07 12:56:53;;;;;;;7.28;6.55;;;8.80;99.90;;;;;;4952588;28;20020;-57
2023/01/07 12:59:22;;;;;;;5.75;5.30;;;8.80;99.90;;;;;;4996849;28;20415;-57
2023/01/07 13:01:47;;;;;;;5.22;4.82;;;8.80;99.90;;;;;;5008579;28;20064;-59
2023/01/07 13:04:47;;;;;;;5.50;5.00;;;8.80;99.90;;;;;;5012581;28;20453;-58
2023/01/07 13:07:20;;;;;;;5.18;4.78;;;8.80;99.90;;;;;;5011236;28;20087;-57
2023/01/07 13:10:00;;;;;;;5.20;4.70;;;8.80;99.90;;;;;;5011286;28;20010;-57
2023/01/07 13:12:43;;;;;;;4.55;4.25;;;8.80;99.90;;;;;;5011361;28;20038;-58
2023/01/07 13:15:21;;;;;;;4.40;4.00;;;8.80;99.90;;;;;;5007610;28;20029;-59
2023/01/07 13:17:48;;;;;;;4.70;4.30;;;8.80;99.90;;;;;;5015403;28;20042;-57